Time;durP1;ratioP1;P1;durP2;ratioP2;P2;SDS_P1;SDS_P2;PMS_P1;PMS_P2;Temp;Humidity;BMP_temperature;BMP_pressure;BME280_temperature;BME280_humidity;BME280_pressure;Samples;Min_cycle;Max_cycle;Signal;HPM_P1;HPM_P2
2023/04/28 00:01:30;;;;;;;8.73;5.70;;;;;;;2.92;81.78;101371.00;5008097;28;20201;-71
2023/04/28 00:03:57;;;;;;;12.50;6.20;;;;;;;2.94;81.58;101368.13;5015089;28;20234;-71
2023/04/28 00:06:23;;;;;;;11.90;6.23;;;;;;;2.96;81.87;101356.41;5017651;28;20224;-71
2023/04/28 00:08:49;;;;;;;13.93;5.93;;;;;;;3.00;81.41;101362.69;5016722;28;20219;-71
2023/04/28 00:11:16;;;;;;;9.00;5.50;;;;;;;3.07;81.97;101359.84;5013345;28;20739;-71
2023/04/28 00:13:43;;;;;;;12.10;7.00;;;;;;;3.08;81.08;101351.75;5012789;28;20225;-71
2023/04/28 00:16:10;;;;;;;9.20;5.93;;;;;;;3.12;80.83;101355.41;5011277;28;20227;-71
2023/04/28 00:18:36;;;;;;;10.30;5.87;;;;;;;3.15;80.68;101357.50;5017290;28;20200;-71
2023/04/28 00:21:02;;;;;;;7.17;5.53;;;;;;;3.18;80.70;101348.38;5015082;28;20245;-71
2023/04/28 00:23:29;;;;;;;13.70;5.60;;;;;;;3.21;80.82;101356.47;5012726;28;20750;-71
2023/04/28 00:25:56;;;;;;;10.50;5.37;;;;;;;3.21;79.54;101348.66;5012886;28;20308;-71
2023/04/28 00:28:22;;;;;;;8.37;5.33;;;;;;;3.27;79.99;101349.44;5012563;28;20240;-71
2023/04/28 00:30:50;;;;;;;9.77;5.97;;;;;;;3.30;80.19;101341.09;5002707;28;20200;-71
2023/04/28 00:33:16;;;;;;;8.70;5.40;;;;;;;3.32;80.24;101339.03;4997909;28;20578;-71
2023/04/28 00:35:43;;;;;;;8.27;5.60;;;;;;;3.32;79.14;101333.81;4996665;28;20224;-71
2023/04/28 00:38:09;;;;;;;6.93;4.90;;;;;;;3.35;79.43;101343.72;5010671;28;20385;-71
2023/04/28 00:40:37;;;;;;;12.57;5.43;;;;;;;3.39;79.50;101329.09;5010399;28;20208;-71
2023/04/28 00:43:04;;;;;;;7.20;5.07;;;;;;;3.42;79.94;101333.81;4999634;28;20203;-71
2023/04/28 00:45:31;;;;;;;8.33;4.93;;;;;;;3.44;79.60;101324.69;5015285;28;20226;-71
2023/04/28 00:48:00;;;;;;;8.33;5.43;;;;;;;3.43;79.40;101319.72;4996624;28;20226;-70
2023/04/28 00:50:26;;;;;;;8.27;5.10;;;;;;;3.45;79.02;101318.41;5000229;28;20291;-71
2023/04/28 00:52:53;;;;;;;7.27;4.90;;;;;;;3.45;79.22;101318.41;5011445;28;20192;-71
2023/04/28 00:55:19;;;;;;;9.87;5.33;;;;;;;3.45;78.92;101320.22;5010661;28;20318;-71
2023/04/28 00:57:46;;;;;;;8.20;5.10;;;;;;;3.46;78.88;101316.56;4997026;28;20211;-71
2023/04/28 01:00:15;;;;;;;9.03;5.43;;;;;;;3.49;78.99;101318.66;4996216;28;20800;-71
2023/04/28 01:02:41;;;;;;;7.43;4.50;;;;;;;3.47;78.37;101311.09;5010536;28;20204;-71
2023/04/28 01:05:11;;;;;;;6.60;4.43;;;;;;;3.48;76.74;101309.28;5005469;28;20215;-71
2023/04/28 01:07:37;;;;;;;9.50;4.20;;;;;;;3.51;76.48;101304.31;5017396;28;20299;-71
2023/04/28 01:10:07;;;;;;;8.47;4.63;;;;;;;3.54;76.75;101305.63;5013683;28;20227;-71
2023/04/28 01:12:35;;;;;;;9.07;4.63;;;;;;;3.59;76.86;101310.84;4993549;28;20203;-71
2023/04/28 01:15:02;;;;;;;10.57;4.30;;;;;;;3.61;76.05;101304.31;4996571;28;20308;-71
2023/04/28 01:17:29;;;;;;;8.83;3.87;;;;;;;3.65;75.19;101302.75;4993970;28;20769;-71
2023/04/28 01:19:56;;;;;;;5.70;3.47;;;;;;;3.72;75.51;101305.88;5001882;28;20250;-71
2023/04/28 01:22:23;;;;;;;7.33;4.30;;;;;;;3.75;74.01;101297.53;5012294;28;20216;-71
2023/04/28 01:24:52;;;;;;;5.93;4.00;;;;;;;3.81;73.40;101299.09;4997564;28;20274;-71
2023/04/28 01:27:18;;;;;;;7.57;4.27;;;;;;;3.87;72.49;101298.03;4997690;28;20224;-71
2023/04/28 01:29:44;;;;;;;7.83;4.53;;;;;;;3.93;72.19;101296.19;5012487;28;20570;-71
2023/04/28 01:32:11;;;;;;;4.60;3.37;;;;;;;4.00;72.91;101299.31;4996441;28;20200;-71
2023/04/28 01:34:39;;;;;;;6.30;3.57;;;;;;;4.03;73.15;101289.13;4991711;28;20231;-71
2023/04/28 01:37:06;;;;;;;7.33;3.57;;;;;;;4.08;72.36;101288.31;4999360;28;20202;-71
2023/04/28 01:39:33;;;;;;;4.70;3.30;;;;;;;4.11;71.34;101295.63;5001168;28;20566;-71
2023/04/28 01:42:03;;;;;;;5.37;3.80;;;;;;;4.16;71.34;101291.19;4998348;28;20573;-71
2023/04/28 01:44:30;;;;;;;7.23;4.07;;;;;;;4.20;71.15;101291.44;5012088;28;20220;-71
2023/04/28 01:46:56;;;;;;;8.33;4.03;;;;;;;4.26;72.17;101291.13;4996028;28;20231;-71
2023/04/28 01:49:22;;;;;;;4.23;3.20;;;;;;;4.30;72.14;101289.56;5030852;23;20630;-71
2023/04/28 01:51:49;;;;;;;7.60;3.63;;;;;;;4.36;72.74;101290.34;5031388;28;20191;-71
2023/04/28 01:54:16;;;;;;;8.07;3.40;;;;;;;4.39;72.33;101287.97;5009401;28;20676;-71
2023/04/28 01:56:43;;;;;;;10.70;3.63;;;;;;;4.42;71.83;101277.00;5015376;28;20362;-71
2023/04/28 01:59:13;;;;;;;9.23;3.60;;;;;;;4.45;71.20;101279.06;5013060;28;20470;-71
2023/04/28 02:01:41;;;;;;;8.67;3.57;;;;;;;4.49;71.95;101285.31;5010186;28;20228;-71
2023/04/28 02:04:22;;;;;;;5.83;3.83;;;;;;;4.52;72.04;101273.53;4991903;28;20203;-72
2023/04/28 02:06:49;;;;;;;5.90;3.87;;;;;;;4.55;71.78;101279.00;5013991;28;20694;-72
2023/04/28 02:09:15;;;;;;;5.27;3.20;;;;;;;4.59;72.77;101284.50;5013832;28;21064;-71
2023/04/28 02:11:42;;;;;;;5.63;3.80;;;;;;;4.60;72.18;101276.38;5015482;28;20210;-71
2023/04/28 02:14:08;;;;;;;4.43;2.83;;;;;;;4.60;70.96;101276.38;5010329;28;20192;-71
2023/04/28 02:16:36;;;;;;;7.97;3.33;;;;;;;4.61;70.76;101264.84;5012480;28;20212;-71
2023/04/28 02:19:04;;;;;;;7.27;3.57;;;;;;;4.61;70.87;101272.72;4993748;28;20214;-71
2023/04/28 02:21:31;;;;;;;5.83;3.27;;;;;;;4.62;69.82;101273.50;5011921;28;20204;-71
2023/04/28 02:23:58;;;;;;;8.37;3.30;;;;;;;4.61;69.55;101264.84;4998626;28;20212;-72
2023/04/28 02:26:24;;;;;;;6.03;3.27;;;;;;;4.61;69.71;101271.94;5013450;28;21068;-71
2023/04/28 02:28:52;;;;;;;6.13;3.23;;;;;;;4.61;69.38;101274.56;5016688;28;20743;-72
2023/04/28 02:31:24;;;;;;;8.50;3.43;;;;;;;4.60;70.12;101279.00;5015180;28;20712;-72
2023/04/28 02:33:55;;;;;;;5.00;3.43;;;;;;;4.59;69.68;101271.41;5017162;28;20776;-71
2023/04/28 02:36:21;;;;;;;6.63;3.63;;;;;;;4.58;68.65;101275.88;4991468;28;20212;-70
2023/04/28 02:38:47;;;;;;;4.20;3.13;;;;;;;4.58;68.83;101262.00;5015428;28;20662;-70
2023/04/28 02:41:15;;;;;;;6.10;3.13;;;;;;;4.58;68.62;101262.00;5015632;28;20214;-71
2023/04/28 02:43:44;;;;;;;6.27;3.63;;;;;;;4.57;68.82;101260.44;5014490;28;20710;-72
2023/04/28 02:46:11;;;;;;;8.60;3.20;;;;;;;4.56;68.57;101258.88;5017196;28;20245;-71
2023/04/28 02:48:37;;;;;;;6.13;3.33;;;;;;;4.55;68.36;101252.06;5015748;28;20224;-71
2023/04/28 02:51:05;;;;;;;7.27;3.67;;;;;;;4.54;68.49;101251.31;5017933;28;20235;-71
2023/04/28 02:53:32;;;;;;;7.07;3.60;;;;;;;4.54;68.67;101251.31;5001240;28;20211;-71
2023/04/28 02:56:00;;;;;;;6.10;3.43;;;;;;;4.55;69.48;101244.22;5013081;28;20204;-70
2023/04/28 02:58:27;;;;;;;7.93;4.17;;;;;;;4.56;70.26;101235.34;4997426;28;20197;-70
2023/04/28 03:00:54;;;;;;;4.17;3.43;;;;;;;4.55;67.99;101239.00;5016548;28;20235;-71
2023/04/28 03:03:20;;;;;;;7.03;3.90;;;;;;;4.55;67.74;101239.00;4995569;28;20573;-72
2023/04/28 03:05:47;;;;;;;10.97;3.90;;;;;;;4.54;68.10;101233.00;5016656;28;20216;-71
2023/04/28 03:08:14;;;;;;;7.57;4.57;;;;;;;4.56;67.77;101235.34;4995193;28;20231;-71
2023/04/28 03:10:42;;;;;;;7.23;4.20;;;;;;;4.55;67.39;101234.56;4998349;28;20230;-71
2023/04/28 03:13:08;;;;;;;6.53;3.77;;;;;;;4.56;67.41;101225.66;4996416;28;20211;-71
2023/04/28 03:15:35;;;;;;;7.63;3.90;;;;;;;4.56;67.30;101220.44;4998363;28;20282;-71
2023/04/28 03:18:01;;;;;;;8.30;4.00;;;;;;;4.56;68.27;101222.28;5016008;28;20204;-71
2023/04/28 03:20:28;;;;;;;6.33;3.77;;;;;;;4.55;68.72;101221.47;4998492;28;20216;-71
2023/04/28 03:22:55;;;;;;;7.00;4.43;;;;;;;4.53;67.26;101218.38;5000101;28;20765;-72
2023/04/28 03:25:23;;;;;;;6.73;3.80;;;;;;;4.53;67.01;101220.97;5016834;28;20192;-71
2023/04/28 03:27:51;;;;;;;11.57;4.27;;;;;;;4.51;67.16;101219.69;4997943;28;20227;-71
2023/04/28 03:30:17;;;;;;;9.73;4.60;;;;;;;4.51;66.88;101220.44;5001477;28;20255;-71
2023/04/28 03:32:43;;;;;;;9.30;3.97;;;;;;;4.51;67.81;101223.06;4996875;28;20307;-71
2023/04/28 03:35:10;;;;;;;6.37;3.80;;;;;;;4.50;67.15;101221.50;4995492;28;20204;-71
2023/04/28 03:37:38;;;;;;;7.13;4.13;;;;;;;4.50;66.33;101218.91;4998166;28;20290;-71
2023/04/28 03:40:07;;;;;;;6.83;3.60;;;;;;;4.51;66.61;101223.06;5014543;28;20231;-71
2023/04/28 03:42:57;;;;;;;5.20;3.53;;;;;;;4.50;66.29;101216.28;4992676;28;20205;-72
2023/04/28 03:45:32;;;;;;;10.27;4.30;;;;;;;4.51;66.81;101212.59;5014039;28;20238;-71
2023/04/28 03:47:58;;;;;;;6.87;4.10;;;;;;;4.53;65.54;101210.53;4997793;28;20609;-71
2023/04/28 03:50:25;;;;;;;5.93;3.77;;;;;;;4.55;66.21;101205.78;4993814;28;20254;-71
2023/04/28 03:52:52;;;;;;;7.50;3.83;;;;;;;4.57;66.21;101213.38;5011517;28;20236;-70
2023/04/28 03:55:19;;;;;;;8.37;3.70;;;;;;;4.59;65.77;101212.06;5003487;28;20204;-71
2023/04/28 03:57:48;;;;;;;7.20;3.60;;;;;;;4.62;65.75;101202.88;5014739;28;20240;-71
2023/04/28 04:00:19;;;;;;;4.43;3.20;;;;;;;4.64;65.89;101200.78;5017840;28;20585;-72
2023/04/28 04:02:48;;;;;;;7.70;3.73;;;;;;;4.67;66.07;101205.47;5016270;28;20219;-71
2023/04/28 04:05:16;;;;;;;7.63;3.67;;;;;;;4.69;66.30;101201.53;5014321;28;20430;-72
2023/04/28 04:07:42;;;;;;;4.93;3.27;;;;;;;4.72;66.30;101200.97;5000665;28;20318;-70
2023/04/28 04:10:09;;;;;;;8.90;3.43;;;;;;;4.75;66.08;101192.59;5000720;28;20249;-71
2023/04/28 04:12:57;;;;;;;12.50;4.30;;;;;;;4.79;65.77;101191.00;4999306;28;20223;-71
2023/04/28 04:15:26;;;;;;;5.90;3.40;;;;;;;4.84;65.22;101187.56;4988533;28;20273;-72
2023/04/28 04:17:53;;;;;;;7.03;3.63;;;;;;;4.88;65.90;101183.34;5016366;28;20192;-71
2023/04/28 04:20:21;;;;;;;10.80;3.80;;;;;;;4.92;65.28;101189.63;5015429;28;20220;-71
2023/04/28 04:22:47;;;;;;;9.27;3.67;;;;;;;4.96;65.29;101180.94;4994580;28;20204;-71
2023/04/28 04:25:15;;;;;;;5.43;3.43;;;;;;;5.01;65.10;101187.94;4999849;28;20301;-71
2023/04/28 04:28:01;;;;;;;9.77;3.43;;;;;;;5.04;64.72;101188.22;4999880;28;20806;-72
2023/04/28 04:30:39;;;;;;;6.40;3.07;;;;;;;5.09;64.96;101182.94;5015483;28;20219;-71
2023/04/28 04:33:17;;;;;;;6.83;3.60;;;;;;;5.15;64.33;101183.66;5011350;28;20766;-72
2023/04/28 04:35:48;;;;;;;6.60;3.33;;;;;;;5.18;64.37;101177.88;5013626;28;20661;-71
2023/04/28 04:38:32;;;;;;;7.90;3.67;;;;;;;5.23;64.48;101170.00;5018636;28;20209;-72
2023/04/28 04:41:07;;;;;;;7.07;4.00;;;;;;;5.30;64.08;101171.25;5000325;28;20228;-71
2023/04/28 04:43:34;;;;;;;8.57;3.47;;;;;;;5.35;64.19;101171.19;5000623;28;20752;-71
2023/04/28 04:46:03;;;;;;;5.97;3.93;;;;;;;5.40;63.81;101165.13;5015319;28;20202;-70
2023/04/28 04:48:30;;;;;;;4.77;3.30;;;;;;;5.48;64.03;101160.06;4998198;28;20307;-71
2023/04/28 04:51:05;;;;;;;4.77;3.33;;;;;;;5.54;63.09;101153.69;5001088;28;20227;-72
2023/04/28 04:53:33;;;;;;;6.17;3.23;;;;;;;5.61;63.61;101159.41;4994053;28;20234;-71
2023/04/28 04:56:00;;;;;;;6.93;3.53;;;;;;;5.68;63.52;101161.69;5011420;28;20216;-71
2023/04/28 04:58:28;;;;;;;8.93;3.63;;;;;;;5.73;63.69;101165.03;5015591;28;20555;-72
2023/04/28 05:01:23;;;;;;;8.30;3.60;;;;;;;5.79;63.27;101160.50;4982117;28;20346;-71
2023/04/28 05:03:53;;;;;;;5.73;3.60;;;;;;;5.84;63.40;101153.41;5015497;28;20228;-71
2023/04/28 05:06:24;;;;;;;8.70;4.00;;;;;;;5.88;62.63;101151.78;5000166;28;20706;-71
2023/04/28 05:08:55;;;;;;;5.83;3.90;;;;;;;5.92;62.85;101147.56;5013030;28;20228;-71
2023/04/28 05:11:22;;;;;;;7.67;4.40;;;;;;;5.97;62.84;101144.88;5014748;28;20626;-70
2023/04/28 05:13:48;;;;;;;7.43;3.90;;;;;;;6.01;62.72;101143.22;5012571;28;20287;-70
2023/04/28 05:16:15;;;;;;;7.20;4.13;;;;;;;6.07;62.83;101141.34;5000955;28;20211;-71
2023/04/28 05:18:55;;;;;;;12.63;4.10;;;;;;;6.11;62.56;101139.72;5014295;28;20203;-71
2023/04/28 05:21:22;;;;;;;9.50;4.10;;;;;;;6.15;62.29;101127.59;4996708;28;20205;-71
2023/04/28 05:24:04;;;;;;;8.70;4.50;;;;;;;6.19;62.85;101132.00;4993600;28;20231;-72
2023/04/28 05:26:31;;;;;;;6.93;4.40;;;;;;;6.26;62.38;101127.19;5014180;28;20203;-71
2023/04/28 05:29:03;;;;;;;8.10;4.80;;;;;;;6.31;62.58;101137.59;5014154;28;20226;-72
2023/04/28 05:31:32;;;;;;;6.17;4.03;;;;;;;6.37;62.10;101136.47;5013617;28;20205;-72
2023/04/28 05:34:00;;;;;;;6.13;4.20;;;;;;;6.43;61.72;101126.69;5000248;28;20204;-71
2023/04/28 05:36:27;;;;;;;7.00;4.20;;;;;;;6.50;61.62;101129.72;5014624;28;20230;-72
2023/04/28 05:38:54;;;;;;;8.77;4.20;;;;;;;6.56;62.21;101132.00;4997499;28;20204;-71
2023/04/28 05:41:20;;;;;;;8.70;4.97;;;;;;;6.63;61.82;101132.41;5013572;28;20203;-70
2023/04/28 05:43:49;;;;;;;9.43;4.17;;;;;;;6.71;61.95;101136.22;5013951;28;20490;-70
2023/04/28 05:46:16;;;;;;;10.23;4.33;;;;;;;6.76;61.78;101130.91;4994162;28;20780;-71
2023/04/28 05:48:43;;;;;;;5.93;3.97;;;;;;;6.83;61.51;101137.34;4998469;28;20239;-70
2023/04/28 05:51:12;;;;;;;6.47;4.40;;;;;;;6.90;61.16;101132.53;4998205;28;20265;-71
2023/04/28 05:53:48;;;;;;;6.30;4.47;;;;;;;6.99;60.76;101127.41;5013234;28;20212;-72
2023/04/28 05:56:16;;;;;;;7.57;4.27;;;;;;;7.08;60.98;101125.66;5012451;28;20435;-71
2023/04/28 05:58:49;;;;;;;7.87;4.43;;;;;;;7.17;61.16;101113.41;4998265;28;20204;-71
2023/04/28 06:01:23;;;;;;;11.70;4.80;;;;;;;7.29;60.93;101113.72;4998999;28;20607;-72
2023/04/28 06:03:50;;;;;;;6.83;4.57;;;;;;;7.41;60.39;101114.81;4993229;28;20642;-70
2023/04/28 06:06:18;;;;;;;12.37;5.50;;;;;;;7.56;60.45;101111.91;5015517;28;20250;-71
2023/04/28 06:08:46;;;;;;;8.63;4.57;;;;;;;7.72;59.20;101112.41;5002470;28;20258;-72
2023/04/28 06:11:21;;;;;;;11.20;5.17;;;;;;;7.83;60.64;101111.13;5019585;28;20230;-72
2023/04/28 06:13:48;;;;;;;7.93;4.77;;;;;;;7.98;59.14;101108.94;5019806;28;20215;-71
2023/04/28 06:16:15;;;;;;;7.37;4.50;;;;;;;8.08;58.57;101113.97;4992316;28;20306;-71
2023/04/28 06:18:42;;;;;;;8.27;4.83;;;;;;;8.24;58.55;101107.34;5021106;28;20213;-70
2023/04/28 06:21:08;;;;;;;8.87;4.97;;;;;;;8.38;57.17;101107.34;5012990;28;20705;-71
2023/04/28 06:23:39;;;;;;;7.43;4.57;;;;;;;8.54;57.95;101109.31;5014608;28;20728;-71
2023/04/28 06:26:15;;;;;;;8.47;5.30;;;;;;;8.71;56.85;101103.38;4998190;28;20200;-71
2023/04/28 06:28:44;;;;;;;8.60;4.77;;;;;;;8.87;56.52;101101.94;5013333;28;20210;-72
2023/04/28 06:31:11;;;;;;;11.60;5.43;;;;;;;8.99;56.54;101102.94;5020366;28;20192;-71
2023/04/28 06:33:39;;;;;;;6.80;4.90;;;;;;;9.12;56.65;101096.81;5011713;28;20682;-72
2023/04/28 06:36:07;;;;;;;11.43;5.23;;;;;;;9.27;55.37;101106.94;5010715;28;20613;-71
2023/04/28 06:38:36;;;;;;;9.00;5.20;;;;;;;9.37;54.48;101101.41;5017900;28;20200;-72
2023/04/28 06:41:04;;;;;;;9.00;5.47;;;;;;;9.49;54.22;101098.22;4998791;28;22456;-72
2023/04/28 06:43:32;;;;;;;7.93;5.07;;;;;;;9.58;54.98;101096.38;5016994;28;20201;-71
2023/04/28 06:46:07;;;;;;;10.47;5.60;;;;;;;9.70;54.70;101093.94;5017460;28;20580;-71
2023/04/28 06:48:34;;;;;;;7.07;5.27;;;;;;;9.77;52.49;101097.66;5018764;28;20221;-72
2023/04/28 06:51:00;;;;;;;9.13;5.33;;;;;;;9.87;53.36;101094.75;5019165;28;20243;-72
2023/04/28 06:53:26;;;;;;;10.73;5.23;;;;;;;9.95;53.94;101088.69;5012592;28;20210;-72
2023/04/28 06:55:53;;;;;;;10.80;5.20;;;;;;;10.07;51.95;101093.41;4995892;28;20217;-71
2023/04/28 06:58:21;;;;;;;7.67;4.90;;;;;;;10.16;53.36;101091.56;5004926;28;20216;-71
2023/04/28 07:00:48;;;;;;;8.80;4.90;;;;;;;10.25;53.96;101081.78;4997488;28;20255;-71
2023/04/28 07:03:14;;;;;;;8.20;5.63;;;;;;;10.34;51.90;101078.06;5017151;28;20207;-71
2023/04/28 07:05:40;;;;;;;7.10;4.80;;;;;;;10.43;50.52;101073.56;5016541;28;20211;-72
2023/04/28 07:08:07;;;;;;;8.87;6.00;;;;;;;10.54;52.19;101072.13;5011260;28;20588;-72
2023/04/28 07:10:36;;;;;;;6.90;4.80;;;;;;;10.65;51.56;101075.22;5014203;28;20278;-72
2023/04/28 07:13:03;;;;;;;10.70;5.10;;;;;;;10.72;51.94;101068.38;5021621;28;20216;-72
2023/04/28 07:15:31;;;;;;;9.33;5.27;;;;;;;10.85;50.32;101070.06;5016245;28;20212;-71
2023/04/28 07:17:57;;;;;;;8.90;5.17;;;;;;;10.96;49.26;101065.97;4992725;28;20317;-72
2023/04/28 07:20:28;;;;;;;9.40;5.50;;;;;;;11.05;50.08;101058.03;5018634;28;20251;-71
2023/04/28 07:22:54;;;;;;;7.77;4.47;;;;;;;11.16;48.47;101054.72;5001460;28;20976;-72
2023/04/28 07:25:22;;;;;;;6.70;4.90;;;;;;;11.27;48.41;101055.91;5017789;28;20208;-72
2023/04/28 07:27:49;;;;;;;9.87;5.93;;;;;;;11.39;50.48;101047.31;5016637;28;20295;-72
2023/04/28 07:30:15;;;;;;;7.23;5.17;;;;;;;11.47;50.25;101052.56;5012914;28;20236;-72
2023/04/28 07:32:43;;;;;;;7.07;4.93;;;;;;;11.57;48.69;101046.13;5015730;28;20213;-72
2023/04/28 07:35:10;;;;;;;7.00;5.23;;;;;;;11.70;49.01;101040.63;5016975;28;20293;-72
2023/04/28 07:37:37;;;;;;;7.77;4.90;;;;;;;11.83;49.15;101038.81;5012411;28;20210;-72
2023/04/28 07:40:05;;;;;;;9.93;5.13;;;;;;;11.94;47.80;101038.13;5013094;28;20231;-73
2023/04/28 07:42:32;;;;;;;8.53;5.07;;;;;;;12.07;47.81;101033.66;5012293;28;20655;-71
2023/04/28 07:44:58;;;;;;;9.07;5.50;;;;;;;12.18;47.54;101035.59;5013932;28;20201;-71
2023/04/28 07:47:29;;;;;;;9.80;4.83;;;;;;;12.25;46.48;101029.75;4995955;28;20240;-72
2023/04/28 07:49:58;;;;;;;9.47;5.20;;;;;;;12.35;46.17;101027.50;5012654;28;20448;-72
2023/04/28 07:52:41;;;;;;;9.23;5.57;;;;;;;12.44;46.59;101024.75;5007966;28;20211;-71
2023/04/28 07:55:08;;;;;;;9.27;4.40;;;;;;;12.51;45.83;101022.34;5012855;28;20754;-72
2023/04/28 07:57:35;;;;;;;10.57;4.90;;;;;;;12.61;44.62;101016.63;5013063;28;20220;-72
2023/04/28 08:00:02;;;;;;;7.87;4.93;;;;;;;12.72;45.86;101023.06;5012128;28;20588;-72
2023/04/28 08:02:38;;;;;;;6.87;4.90;;;;;;;12.79;43.03;101016.13;5010663;28;20222;-70
2023/04/28 08:05:07;;;;;;;6.37;4.57;;;;;;;12.86;44.42;101016.38;5015836;28;20226;-71
2023/04/28 08:07:35;;;;;;;7.37;4.47;;;;;;;12.94;45.47;101012.84;5017644;28;20888;-72
2023/04/28 08:10:02;;;;;;;8.37;4.37;;;;;;;13.05;45.27;101007.91;4996706;28;20780;-72
2023/04/28 08:12:35;;;;;;;5.87;4.07;;;;;;;13.12;45.21;101005.47;5003549;28;20248;-73
2023/04/28 08:15:07;;;;;;;8.93;4.40;;;;;;;13.18;44.25;101004.13;5009690;28;20203;-72
2023/04/28 08:17:36;;;;;;;9.00;4.77;;;;;;;13.29;45.12;101002.59;5013652;28;20235;-72
2023/04/28 08:20:21;;;;;;;5.77;4.23;;;;;;;13.39;45.39;101000.28;5014861;28;20314;-73
2023/04/28 08:22:47;;;;;;;8.80;4.60;;;;;;;13.44;44.92;100992.09;5013477;28;20218;-73
2023/04/28 08:25:14;;;;;;;8.73;5.13;;;;;;;13.51;42.78;100994.94;5015631;28;20204;-71
2023/04/28 08:28:16;;;;;;;6.53;4.13;;;;;;;13.58;45.97;100995.16;5015577;28;20207;-72
2023/04/28 08:30:43;;;;;;;6.93;3.57;;;;;;;13.69;43.85;100987.50;5016255;28;20222;-72
2023/04/28 08:33:11;;;;;;;7.17;4.20;;;;;;;13.81;43.11;100995.44;5015716;28;20549;-73
2023/04/28 08:35:45;;;;;;;5.23;3.67;;;;;;;13.88;43.79;100991.09;5017480;28;20203;-72
2023/04/28 08:38:14;;;;;;;5.23;3.70;;;;;;;13.97;42.91;100985.66;5017120;28;20215;-72
2023/04/28 08:40:44;;;;;;;5.73;3.50;;;;;;;14.07;42.04;100988.59;5016512;28;20242;-72
2023/04/28 08:43:10;;;;;;;5.57;3.70;;;;;;;14.19;44.73;100987.78;5016050;28;20208;-71
2023/04/28 08:45:41;;;;;;;6.90;3.50;;;;;;;14.32;43.71;100981.31;5016894;28;20194;-72
2023/04/28 08:48:18;;;;;;;8.53;3.67;;;;;;;14.41;42.51;100988.03;5016288;28;20209;-73
2023/04/28 08:50:49;;;;;;;5.90;3.07;;;;;;;14.48;42.06;100985.53;5013356;28;20746;-72
2023/04/28 08:53:23;;;;;;;6.13;3.70;;;;;;;14.55;42.20;100974.31;5016440;28;20269;-71
2023/04/28 08:55:56;;;;;;;8.97;3.57;;;;;;;14.63;40.35;100973.38;5014331;28;20337;-72
2023/04/28 08:58:23;;;;;;;8.83;3.50;;;;;;;14.71;43.29;100967.13;5017258;28;20218;-72
2023/04/28 09:00:50;;;;;;;7.40;3.57;;;;;;;14.77;41.44;100960.44;5013664;28;20219;-73
2023/04/28 09:03:17;;;;;;;5.10;3.33;;;;;;;14.87;40.27;100968.69;5016494;28;20211;-71
2023/04/28 09:05:44;;;;;;;5.50;3.70;;;;;;;15.02;41.37;100964.44;5015387;28;20704;-71
2023/04/28 09:08:22;;;;;;;7.33;3.40;;;;;;;15.16;41.32;100959.47;5017460;28;20210;-72
2023/04/28 09:11:22;;;;;;;4.40;3.17;;;;;;;15.29;42.44;100951.03;5016555;28;20230;-72
2023/04/28 09:13:49;;;;;;;4.27;3.30;;;;;;;15.35;40.28;100954.19;5014469;28;20222;-73
2023/04/28 09:16:17;;;;;;;4.60;3.33;;;;;;;15.44;42.22;100952.13;5020899;28;20223;-72
2023/04/28 09:18:56;;;;;;;6.53;3.33;;;;;;;15.55;42.40;100950.44;5014639;28;20203;-71
2023/04/28 09:21:25;;;;;;;5.97;3.37;;;;;;;15.70;42.67;100941.63;5007459;28;21048;-72
2023/04/28 09:24:08;;;;;;;8.80;3.67;;;;;;;15.75;41.31;100947.47;5014276;28;20277;-73
2023/04/28 09:26:52;;;;;;;7.97;3.63;;;;;;;15.83;39.05;100943.78;5013721;28;20310;-72
2023/04/28 09:29:23;;;;;;;7.87;3.70;;;;;;;15.95;40.88;100946.34;5016713;28;20231;-72
2023/04/28 09:32:13;;;;;;;6.90;3.33;;;;;;;16.06;41.45;100943.84;4998490;28;20211;-72
2023/04/28 09:35:03;;;;;;;5.23;3.37;;;;;;;16.12;41.96;100942.44;5014324;28;20673;-72
2023/04/28 09:37:36;;;;;;;8.07;3.40;;;;;;;16.19;40.06;100934.59;5007296;28;20219;-72
2023/04/28 09:40:07;;;;;;;6.63;3.43;;;;;;;16.27;41.43;100933.56;5010257;28;20224;-72
2023/04/28 09:42:35;;;;;;;4.00;3.00;;;;;;;16.41;40.37;100933.84;5008485;28;20208;-72
2023/04/28 09:45:02;;;;;;;6.53;3.87;;;;;;;16.51;41.61;100930.59;5010995;28;20208;-73
2023/04/28 09:47:29;;;;;;;7.97;4.00;;;;;;;16.55;41.07;100932.19;5014036;28;20274;-73
2023/04/28 09:49:56;;;;;;;7.33;3.87;;;;;;;16.65;41.85;100923.59;5010466;28;20599;-73
2023/04/28 09:52:23;;;;;;;7.20;3.57;;;;;;;16.71;39.33;100922.16;5013293;28;20199;-73
2023/04/28 09:54:51;;;;;;;4.70;3.47;;;;;;;16.77;40.50;100926.06;5006648;28;20578;-71
2023/04/28 09:57:20;;;;;;;6.43;3.77;;;;;;;16.81;40.39;100916.22;5004898;28;20294;-73
2023/04/28 09:59:48;;;;;;;4.97;3.57;;;;;;;16.91;38.71;100912.94;5015444;28;20231;-72
2023/04/28 10:02:15;;;;;;;7.27;4.00;;;;;;;16.92;38.04;100909.13;5013413;28;20219;-73
2023/04/28 10:04:42;;;;;;;5.97;3.33;;;;;;;17.00;40.46;100897.44;5017951;28;20589;-72
2023/04/28 10:07:09;;;;;;;7.17;3.43;;;;;;;17.04;39.97;100902.84;4992419;28;20208;-73
2023/04/28 10:09:46;;;;;;;4.53;3.00;;;;;;;17.08;38.42;100901.75;5013227;28;20863;-72
2023/04/28 10:12:20;;;;;;;4.37;3.43;;;;;;;17.08;38.88;100899.06;5013536;28;20265;-73
2023/04/28 10:14:49;;;;;;;4.93;3.37;;;;;;;17.04;37.82;100900.16;5013215;28;20203;-72
2023/04/28 10:17:17;;;;;;;7.23;3.30;;;;;;;17.10;40.08;100894.16;5013303;28;20453;-73
2023/04/28 10:19:45;;;;;;;6.53;3.23;;;;;;;17.20;39.78;100888.19;5015924;28;20231;-73
2023/04/28 10:22:29;;;;;;;4.60;2.90;;;;;;;17.32;39.40;100885.28;5011432;28;20216;-72
2023/04/28 10:25:21;;;;;;;5.83;3.30;;;;;;;17.43;40.41;100878.22;5013304;28;20752;-72
2023/04/28 10:27:50;;;;;;;5.47;3.03;;;;;;;17.58;39.12;100879.13;5011853;28;20223;-72
2023/04/28 10:30:23;;;;;;;4.90;2.60;;;;;;;17.71;40.00;100878.53;5010415;28;20223;-71
2023/04/28 10:33:25;;;;;;;7.07;3.50;;;;;;;17.86;39.79;100871.44;5012344;28;20210;-71
2023/04/28 10:35:52;;;;;;;7.57;3.40;;;;;;;17.95;38.16;100861.97;5012615;28;20206;-72
2023/04/28 10:38:20;;;;;;;4.13;3.30;;;;;;;18.06;38.73;100864.75;5013120;28;20585;-72
2023/04/28 10:40:50;;;;;;;7.00;3.33;;;;;;;18.18;38.87;100859.13;5013635;28;20234;-71
2023/04/28 10:43:38;;;;;;;4.20;2.53;;;;;;;18.26;38.59;100850.81;5011725;28;20216;-72
2023/04/28 10:46:17;;;;;;;5.80;3.60;;;;;;;18.33;36.50;100845.56;5014466;28;20796;-72
2023/04/28 10:48:55;;;;;;;4.87;2.70;;;;;;;18.38;38.01;100839.09;5015470;28;20462;-71
2023/04/28 10:51:23;;;;;;;5.23;3.20;;;;;;;18.48;38.86;100844.50;5016748;28;20303;-71
2023/04/28 10:54:22;;;;;;;7.67;3.50;;;;;;;18.58;35.76;100833.09;5010343;28;20538;-71
2023/04/28 10:57:20;;;;;;;9.67;3.40;;;;;;;18.69;36.41;100828.59;5008134;28;20514;-71
2023/04/28 10:59:50;;;;;;;5.07;2.80;;;;;;;18.77;37.09;100830.19;5014161;28;20220;-71
2023/04/28 11:02:39;;;;;;;4.10;2.93;;;;;;;18.82;35.97;100829.81;5015940;28;20629;-71
2023/04/28 11:05:20;;;;;;;5.33;2.83;;;;;;;18.85;38.79;100831.75;5015969;28;20196;-70
2023/04/28 11:08:29;;;;;;;5.00;3.10;;;;;;;18.92;36.62;100823.75;5012844;28;20603;-72
2023/04/28 11:11:21;;;;;;;4.87;3.00;;;;;;;19.01;34.90;100820.75;5013389;28;20224;-71
2023/04/28 11:13:49;;;;;;;5.13;3.07;;;;;;;19.04;36.01;100814.66;5015774;28;20528;-71
2023/04/28 11:16:19;;;;;;;6.07;3.30;;;;;;;19.11;37.77;100820.03;5012930;28;20223;-71
2023/04/28 11:18:53;;;;;;;8.27;3.23;;;;;;;19.21;36.70;100814.75;5009952;28;20208;-72
2023/04/28 11:21:20;;;;;;;4.60;2.93;;;;;;;19.33;36.50;100811.72;5014529;28;20584;-70
2023/04/28 11:23:47;;;;;;;7.00;3.07;;;;;;;19.43;37.50;100812.88;5015897;28;20211;-72
2023/04/28 11:26:14;;;;;;;6.10;2.83;;;;;;;19.44;36.21;100815.19;5009728;28;20644;-71
2023/04/28 11:28:47;;;;;;;3.60;2.10;;;;;;;19.49;36.68;100814.03;5014161;28;20233;-71
2023/04/28 11:31:17;;;;;;;4.30;2.80;;;;;;;19.48;35.93;100807.94;5014853;28;21001;-72
2023/04/28 11:33:47;;;;;;;3.90;2.50;;;;;;;19.48;36.03;100813.28;5012563;28;20204;-72
2023/04/28 11:36:27;;;;;;;4.80;2.60;;;;;;;19.44;36.41;100803.69;5012897;28;20569;-71
2023/04/28 11:38:54;;;;;;;3.10;2.47;;;;;;;19.38;35.84;100799.88;5013710;28;20783;-72
2023/04/28 11:41:21;;;;;;;4.50;2.63;;;;;;;19.35;36.54;100809.44;5013599;28;20204;-72
2023/04/28 11:43:48;;;;;;;2.93;2.50;;;;;;;19.28;35.23;100801.38;5008448;28;20196;-72